Time;durP1;ratioP1;P1;durP2;ratioP2;P2;SDS_P1;SDS_P2;PMS_P1;PMS_P2;Temp;Humidity;BMP_temperature;BMP_pressure;BME280_temperature;BME280_humidity;BME280_pressure;Samples;Min_cycle;Max_cycle;Signal;HPM_P1;HPM_P2
2023/03/26 00:00:43;;;;;;;3.10;0.77;;;19.80;66.30;;;;;;4967807;28;20047;-74
2023/03/26 00:03:12;;;;;;;2.28;0.70;;;19.80;66.40;;;;;;4972067;28;20098;-74
2023/03/26 00:05:40;;;;;;;2.15;0.88;;;19.80;66.40;;;;;;4972158;28;20527;-74
2023/03/26 00:08:08;;;;;;;2.72;1.33;;;19.70;66.40;;;;;;4972277;28;20519;-75
2023/03/26 00:10:35;;;;;;;2.17;0.20;;;19.70;66.50;;;;;;4972377;28;20051;-75
2023/03/26 00:13:03;;;;;;;5.07;0.63;;;19.70;66.50;;;;;;4971965;28;20046;-74
2023/03/26 00:15:30;;;;;;;3.72;1.05;;;19.60;66.50;;;;;;4972514;28;20058;-75
2023/03/26 00:17:56;;;;;;;1.80;0.32;;;19.60;66.60;;;;;;4970785;28;20522;-74
2023/03/26 00:20:26;;;;;;;4.60;0.40;;;19.60;66.60;;;;;;4972173;28;20050;-76
2023/03/26 00:22:53;;;;;;;4.30;1.10;;;19.50;66.60;;;;;;4972021;28;20043;-76
2023/03/26 00:25:22;;;;;;;3.10;0.93;;;19.50;66.70;;;;;;4970852;28;20117;-76
2023/03/26 00:27:50;;;;;;;3.08;0.30;;;19.50;66.80;;;;;;4970269;28;20510;-76
2023/03/26 00:30:17;;;;;;;1.98;0.60;;;19.40;66.80;;;;;;4969671;28;20526;-75
2023/03/26 00:32:44;;;;;;;2.58;0.77;;;19.40;66.80;;;;;;4967811;28;20046;-74
2023/03/26 00:35:11;;;;;;;3.45;0.90;;;19.40;66.90;;;;;;4968427;28;20146;-75
2023/03/26 00:37:41;;;;;;;3.08;1.10;;;19.40;67.00;;;;;;4968608;28;20047;-74
2023/03/26 00:40:10;;;;;;;1.75;0.57;;;19.30;67.00;;;;;;4970988;28;20480;-74
2023/03/26 00:42:37;;;;;;;2.22;1.30;;;19.30;67.00;;;;;;4969293;28;20173;-75
2023/03/26 00:45:06;;;;;;;2.40;0.77;;;19.30;67.10;;;;;;4968033;28;20043;-74
2023/03/26 00:47:34;;;;;;;3.10;1.10;;;19.30;67.00;;;;;;4984525;28;20130;-75
2023/03/26 00:50:02;;;;;;;3.47;0.68;;;19.20;67.00;;;;;;4968400;28;20050;-75
2023/03/26 00:52:30;;;;;;;1.27;0.65;;;19.30;67.10;;;;;;4969673;28;20050;-75
2023/03/26 00:54:58;;;;;;;2.00;0.90;;;19.30;67.00;;;;;;4971009;28;20101;-75
2023/03/26 00:57:28;;;;;;;2.65;0.85;;;19.30;66.90;;;;;;4969813;28;20418;-75
2023/03/26 00:59:55;;;;;;;5.32;1.27;;;19.30;66.80;;;;;;4970483;28;20066;-74
2023/03/26 01:02:24;;;;;;;1.95;0.57;;;19.30;66.70;;;;;;4970219;28;20061;-74
2023/03/26 01:05:01;;;;;;;1.80;0.63;;;19.40;66.70;;;;;;4971026;28;20055;-74
2023/03/26 01:07:30;;;;;;;2.67;0.82;;;19.40;66.60;;;;;;4970230;28;20051;-74
2023/03/26 01:09:59;;;;;;;2.38;0.50;;;19.50;66.50;;;;;;4971425;28;20075;-74
2023/03/26 01:12:30;;;;;;;4.03;2.08;;;19.50;66.40;;;;;;4969676;28;20053;-74
2023/03/26 01:15:00;;;;;;;2.33;0.65;;;19.60;66.30;;;;;;4969622;28;20488;-75
2023/03/26 01:17:32;;;;;;;2.78;0.77;;;19.60;66.20;;;;;;4969828;28;20121;-74
2023/03/26 01:20:11;;;;;;;2.13;0.80;;;19.70;66.10;;;;;;4970736;28;20034;-74
2023/03/26 01:22:40;;;;;;;1.92;0.68;;;19.80;66.00;;;;;;4970470;28;20791;-75
2023/03/26 01:25:09;;;;;;;2.28;0.20;;;19.90;65.90;;;;;;4970987;28;20487;-75
2023/03/26 01:27:42;;;;;;;2.13;0.70;;;19.90;65.70;;;;;;4970941;28;20455;-74
2023/03/26 01:30:17;;;;;;;3.65;0.70;;;20.00;65.60;;;;;;4971020;28;20062;-75
2023/03/26 01:32:58;;;;;;;2.40;0.68;;;20.00;65.40;;;;;;4967021;28;20578;-74
2023/03/26 01:35:37;;;;;;;2.75;1.00;;;20.10;65.40;;;;;;4968437;28;20061;-75
2023/03/26 01:38:12;;;;;;;1.70;0.70;;;20.00;65.30;;;;;;4961695;28;20511;-75
2023/03/26 01:40:48;;;;;;;3.60;0.73;;;20.10;65.40;;;;;;4968077;28;20065;-75
2023/03/26 01:43:25;;;;;;;3.75;1.08;;;20.10;65.40;;;;;;4968084;28;20073;-75
2023/03/26 01:45:53;;;;;;;3.33;0.93;;;20.00;65.40;;;;;;4969612;28;20089;-75
2023/03/26 01:48:20;;;;;;;1.67;0.63;;;20.00;65.40;;;;;;4968020;28;20098;-75
2023/03/26 01:50:52;;;;;;;2.17;0.88;;;20.00;65.40;;;;;;4970511;28;20073;-75
2023/03/26 01:53:19;;;;;;;3.28;1.13;;;20.00;65.40;;;;;;4969641;28;20107;-74
2023/03/26 01:55:56;;;;;;;2.13;0.90;;;19.90;65.40;;;;;;4969993;28;20414;-74
2023/03/26 01:58:34;;;;;;;2.90;0.88;;;19.90;65.40;;;;;;4973812;28;20421;-74
2023/03/26 02:01:12;;;;;;;2.42;0.82;;;19.90;65.50;;;;;;4973873;28;20050;-75
2023/03/26 02:03:46;;;;;;;4.28;0.68;;;19.80;65.40;;;;;;4971460;28;20059;-75
2023/03/26 02:06:18;;;;;;;2.78;0.70;;;19.80;65.50;;;;;;4973145;28;20058;-74
2023/03/26 02:08:51;;;;;;;2.53;0.70;;;19.80;65.50;;;;;;4964163;28;20607;-75
2023/03/26 02:11:20;;;;;;;1.77;0.82;;;19.70;65.50;;;;;;4974606;28;20133;-75
2023/03/26 02:13:47;;;;;;;3.35;0.88;;;19.70;65.50;;;;;;4968777;28;20503;-74
2023/03/26 02:16:16;;;;;;;2.42;0.85;;;19.60;65.50;;;;;;4973365;28;20051;-75
2023/03/26 02:18:44;;;;;;;3.50;1.17;;;19.60;65.60;;;;;;4969139;28;20628;-75
2023/03/26 02:21:13;;;;;;;2.53;0.30;;;19.60;65.70;;;;;;4971475;28;20046;-74
2023/03/26 02:23:41;;;;;;;3.33;0.90;;;19.50;65.60;;;;;;4972454;28;20802;-75
2023/03/26 02:26:10;;;;;;;2.53;0.70;;;19.50;65.70;;;;;;4969186;28;20186;-74
2023/03/26 02:28:38;;;;;;;2.10;0.80;;;19.50;65.70;;;;;;4972680;28;20062;-74
2023/03/26 02:31:08;;;;;;;2.42;0.90;;;19.50;65.80;;;;;;4970919;28;20133;-74
2023/03/26 02:33:35;;;;;;;4.10;0.73;;;19.40;65.80;;;;;;4970700;28;20054;-75
2023/03/26 02:36:03;;;;;;;2.38;0.30;;;19.40;65.80;;;;;;4971102;28;20054;-75
2023/03/26 02:38:32;;;;;;;3.30;0.90;;;19.40;65.80;;;;;;4972576;28;20051;-74
2023/03/26 02:40:59;;;;;;;3.50;0.68;;;19.30;65.80;;;;;;4974259;28;20063;-75
2023/03/26 02:43:26;;;;;;;2.85;0.80;;;19.30;65.80;;;;;;4973684;28;20061;-74
2023/03/26 02:45:55;;;;;;;3.05;0.73;;;19.30;66.00;;;;;;4971872;28;20054;-74
2023/03/26 02:48:22;;;;;;;2.60;0.90;;;19.30;66.50;;;;;;4971344;28;20051;-74
2023/03/26 02:50:53;;;;;;;2.38;0.70;;;19.30;65.90;;;;;;4972476;28;20062;-74
2023/03/26 02:53:20;;;;;;;4.78;0.98;;;19.30;65.90;;;;;;4988410;28;20077;-75
2023/03/26 02:55:47;;;;;;;3.55;0.88;;;19.30;65.90;;;;;;4971897;28;20121;-74
2023/03/26 02:58:16;;;;;;;3.25;0.88;;;19.30;65.80;;;;;;4973439;28;20043;-75
2023/03/26 03:00:43;;;;;;;2.15;0.90;;;19.30;65.70;;;;;;4973006;28;20051;-74
2023/03/26 03:03:11;;;;;;;2.17;0.60;;;19.40;65.70;;;;;;4973447;28;20054;-74
2023/03/26 03:05:41;;;;;;;3.35;0.63;;;19.40;65.60;;;;;;4969419;28;20062;-75
2023/03/26 03:08:09;;;;;;;2.13;0.60;;;19.40;65.50;;;;;;4969487;28;20065;-75
2023/03/26 03:10:36;;;;;;;2.20;0.10;;;19.50;65.50;;;;;;4967722;28;20059;-75
2023/03/26 03:13:06;;;;;;;2.88;0.70;;;19.50;65.40;;;;;;4971864;28;20055;-75
2023/03/26 03:15:33;;;;;;;2.05;0.57;;;19.60;65.90;;;;;;4973472;28;20424;-74
2023/03/26 03:18:00;;;;;;;1.83;0.20;;;19.60;65.20;;;;;;4970195;28;20055;-74
2023/03/26 03:20:29;;;;;;;2.42;0.20;;;19.70;65.70;;;;;;4957980;28;20059;-75
2023/03/26 03:22:56;;;;;;;3.85;0.50;;;19.80;65.00;;;;;;4972657;28;20078;-74
2023/03/26 03:25:24;;;;;;;2.67;0.30;;;19.90;65.00;;;;;;4966658;28;20100;-75
2023/03/26 03:27:52;;;;;;;2.13;0.55;;;19.90;64.80;;;;;;4973167;28;20050;-74
2023/03/26 03:30:19;;;;;;;3.22;0.98;;;20.00;64.70;;;;;;4972341;28;20152;-74
2023/03/26 03:32:46;;;;;;;1.55;0.30;;;20.00;64.60;;;;;;4972000;28;20072;-74
2023/03/26 03:35:13;;;;;;;2.10;0.80;;;20.10;64.60;;;;;;4972613;28;20077;-74
2023/03/26 03:37:42;;;;;;;1.48;0.73;;;20.10;64.50;;;;;;4973123;28;20055;-74
2023/03/26 03:40:10;;;;;;;1.98;0.77;;;20.10;64.50;;;;;;4959853;28;20063;-75
2023/03/26 03:42:37;;;;;;;1.75;0.60;;;20.10;64.50;;;;;;4968016;28;20412;-74
2023/03/26 03:45:05;;;;;;;2.60;0.90;;;20.10;64.40;;;;;;4986694;28;20051;-74
2023/03/26 03:47:32;;;;;;;2.67;0.98;;;20.10;64.50;;;;;;4968518;28;20097;-75
2023/03/26 03:49:59;;;;;;;2.20;0.85;;;20.10;64.50;;;;;;4953822;28;20514;-75
2023/03/26 03:52:27;;;;;;;1.05;0.10;;;20.00;64.50;;;;;;4961779;28;20479;-74
2023/03/26 03:54:56;;;;;;;1.67;0.80;;;20.00;64.60;;;;;;4970656;28;20062;-75
2023/03/26 03:57:23;;;;;;;2.72;0.57;;;20.00;64.60;;;;;;4987237;28;20055;-74
2023/03/26 03:59:50;;;;;;;2.30;0.70;;;20.00;64.70;;;;;;4972736;28;20058;-74
2023/03/26 04:02:24;;;;;;;2.20;0.80;;;19.90;64.70;;;;;;4972275;28;20066;-74
2023/03/26 04:04:51;;;;;;;1.75;0.20;;;19.90;65.30;;;;;;4986126;28;20057;-75
2023/03/26 04:07:18;;;;;;;2.42;0.82;;;19.90;64.80;;;;;;4970962;28;20068;-74
2023/03/26 04:09:45;;;;;;;2.55;1.13;;;19.80;64.80;;;;;;4971459;28;20059;-74
2023/03/26 04:12:14;;;;;;;2.55;0.90;;;19.80;64.80;;;;;;4967553;28;20121;-74
2023/03/26 04:14:41;;;;;;;2.75;1.40;;;19.80;64.90;;;;;;4970387;28;20051;-74
2023/03/26 04:17:08;;;;;;;1.33;0.50;;;19.80;64.90;;;;;;4970656;28;20059;-74
2023/03/26 04:19:35;;;;;;;2.60;0.80;;;19.70;65.50;;;;;;4969933;28;20054;-74
2023/03/26 04:22:02;;;;;;;1.95;0.55;;;19.70;64.90;;;;;;4986845;28;20062;-74
2023/03/26 04:24:32;;;;;;;2.42;0.30;;;19.70;65.00;;;;;;4969944;28;20051;-75
2023/03/26 04:27:00;;;;;;;1.98;0.20;;;19.60;65.00;;;;;;4971302;28;20061;-74
2023/03/26 04:29:31;;;;;;;3.00;0.60;;;19.60;65.10;;;;;;4971542;28;20503;-74
2023/03/26 04:32:05;;;;;;;1.42;0.60;;;19.50;65.10;;;;;;4972232;28;20161;-75
2023/03/26 04:34:33;;;;;;;2.15;0.75;;;19.50;65.10;;;;;;4970154;28;20472;-74
2023/03/26 04:37:02;;;;;;;3.22;1.20;;;19.50;65.10;;;;;;4971839;28;20138;-74
2023/03/26 04:39:29;;;;;;;1.75;0.10;;;19.40;65.10;;;;;;4972026;28;20054;-75
2023/03/26 04:41:56;;;;;;;2.88;0.65;;;19.40;65.80;;;;;;4969848;28;20480;-75
2023/03/26 04:44:23;;;;;;;2.00;0.80;;;19.40;65.30;;;;;;4969873;28;20110;-74
2023/03/26 04:46:54;;;;;;;2.65;0.73;;;19.30;65.30;;;;;;4969354;28;20050;-75
2023/03/26 04:49:20;;;;;;;1.70;0.70;;;19.30;65.30;;;;;;4971881;28;20054;-75
2023/03/26 04:51:47;;;;;;;1.50;0.68;;;19.30;65.30;;;;;;4986244;28;20477;-74
2023/03/26 04:54:18;;;;;;;3.67;1.10;;;19.30;65.40;;;;;;4971005;28;20116;-74
2023/03/26 04:56:51;;;;;;;1.73;0.60;;;19.20;65.40;;;;;;4971765;28;20051;-74
2023/03/26 04:59:24;;;;;;;2.42;0.60;;;19.30;65.40;;;;;;4986255;28;20057;-74
2023/03/26 05:01:53;;;;;;;1.55;0.20;;;19.30;65.40;;;;;;4970507;28;20143;-74
2023/03/26 05:04:19;;;;;;;1.35;0.70;;;19.30;65.40;;;;;;4971360;28;20042;-74
2023/03/26 05:06:47;;;;;;;2.65;0.68;;;19.30;65.30;;;;;;4971196;28;20055;-74
2023/03/26 05:09:14;;;;;;;2.05;0.65;;;19.30;65.20;;;;;;4968384;28;20546;-74
2023/03/26 05:11:41;;;;;;;1.95;0.90;;;19.40;65.20;;;;;;4967621;28;20042;-74
2023/03/26 05:14:09;;;;;;;3.00;0.80;;;19.50;65.10;;;;;;4971617;28;20066;-75
2023/03/26 05:16:38;;;;;;;1.60;0.63;;;19.50;65.10;;;;;;4985816;28;20051;-75
2023/03/26 05:19:07;;;;;;;2.75;0.77;;;19.50;64.90;;;;;;4971164;28;20077;-74
2023/03/26 05:21:34;;;;;;;1.60;0.60;;;19.60;64.90;;;;;;4963001;28;20077;-75
2023/03/26 05:24:01;;;;;;;1.58;0.77;;;19.70;64.80;;;;;;4970126;28;20125;-74
2023/03/26 05:26:29;;;;;;;1.90;0.73;;;19.70;64.70;;;;;;4970028;28;20054;-75
2023/03/26 05:28:56;;;;;;;1.30;0.20;;;19.80;64.70;;;;;;4971338;28;20117;-74
2023/03/26 05:31:25;;;;;;;2.03;0.55;;;19.80;64.50;;;;;;4985467;28;20499;-74
2023/03/26 05:33:53;;;;;;;1.50;0.30;;;19.90;64.50;;;;;;4961803;28;20046;-75
2023/03/26 05:36:22;;;;;;;1.88;0.73;;;19.90;64.30;;;;;;4975434;28;20157;-74
2023/03/26 05:38:51;;;;;;;2.45;0.70;;;20.00;64.30;;;;;;4973088;28;20055;-75
2023/03/26 05:41:18;;;;;;;1.77;0.70;;;20.00;64.20;;;;;;4972994;28;20055;-75
2023/03/26 05:43:46;;;;;;;2.40;0.63;;;20.00;64.20;;;;;;4970286;28;20054;-75
2023/03/26 05:46:14;;;;;;;1.73;0.77;;;20.00;64.20;;;;;;4959152;28;20091;-75
2023/03/26 05:48:41;;;;;;;1.70;0.60;;;20.00;64.30;;;;;;4961907;28;20047;-74
2023/03/26 05:51:08;;;;;;;2.25;0.68;;;20.00;64.30;;;;;;4969046;28;20047;-75
2023/03/26 05:53:36;;;;;;;2.33;1.30;;;20.00;64.30;;;;;;4973422;28;20046;-75
2023/03/26 05:56:03;;;;;;;1.13;0.10;;;19.90;64.30;;;;;;4974782;28;20047;-75
2023/03/26 05:58:32;;;;;;;1.63;0.63;;;19.90;64.40;;;;;;4974980;28;20057;-75
2023/03/26 06:01:01;;;;;;;1.10;0.55;;;19.90;64.40;;;;;;4969222;28;20051;-75
2023/03/26 06:03:28;;;;;;;2.67;0.98;;;19.90;64.50;;;;;;4980154;28;20055;-75
2023/03/26 06:05:55;;;;;;;2.83;0.80;;;19.90;64.50;;;;;;4971932;28;20043;-74
2023/03/26 06:08:22;;;;;;;2.38;0.77;;;19.80;64.60;;;;;;4973977;28;20072;-74
2023/03/26 06:10:51;;;;;;;1.50;0.60;;;19.80;64.60;;;;;;4972253;28;20043;-75
2023/03/26 06:13:18;;;;;;;1.95;0.65;;;19.80;64.60;;;;;;4972570;28;20065;-75
2023/03/26 06:15:45;;;;;;;2.03;0.60;;;19.80;64.70;;;;;;4972944;28;20484;-74
2023/03/26 06:18:12;;;;;;;1.75;0.60;;;19.70;64.70;;;;;;4972734;28;20082;-74
2023/03/26 06:20:41;;;;;;;1.23;0.60;;;19.70;64.70;;;;;;4973431;28;20066;-75
2023/03/26 06:23:09;;;;;;;3.03;0.57;;;19.60;64.70;;;;;;4972883;28;20558;-75
2023/03/26 06:25:37;;;;;;;1.95;0.85;;;19.60;64.80;;;;;;4973610;28;20061;-74
2023/03/26 06:28:05;;;;;;;1.98;1.15;;;19.60;64.80;;;;;;4973543;28;20054;-74
2023/03/26 06:30:32;;;;;;;1.58;0.70;;;19.60;64.90;;;;;;4973403;28;20153;-75
2023/03/26 06:32:59;;;;;;;2.20;1.08;;;19.60;64.90;;;;;;4973081;28;20042;-75
2023/03/26 06:35:28;;;;;;;1.45;0.60;;;19.50;65.50;;;;;;4972970;28;20055;-74
2023/03/26 06:37:55;;;;;;;2.17;0.57;;;19.50;65.00;;;;;;4953790;29;20050;-75
2023/03/26 06:40:22;;;;;;;2.08;0.70;;;19.40;65.00;;;;;;4967391;28;20050;-75
2023/03/26 06:42:49;;;;;;;2.13;0.20;;;19.40;65.10;;;;;;4969818;28;20153;-75
2023/03/26 06:45:18;;;;;;;1.77;1.20;;;19.40;65.70;;;;;;4968073;28;20086;-74
2023/03/26 06:47:45;;;;;;;2.28;0.77;;;19.40;65.10;;;;;;4973386;28;20800;-75
2023/03/26 06:50:12;;;;;;;1.50;0.60;;;19.30;65.10;;;;;;4972788;28;20059;-75
2023/03/26 06:52:39;;;;;;;2.90;0.68;;;19.30;65.10;;;;;;4959327;28;20496;-75
2023/03/26 06:55:09;;;;;;;1.83;0.10;;;19.30;65.20;;;;;;4955176;28;20169;-75
2023/03/26 06:57:36;;;;;;;2.13;0.47;;;19.30;65.20;;;;;;4966145;28;20058;-75
2023/03/26 07:00:03;;;;;;;1.27;0.80;;;19.30;65.20;;;;;;4954652;28;20065;-75
2023/03/26 07:02:31;;;;;;;1.80;0.65;;;19.30;65.20;;;;;;4961615;28;20141;-75
2023/03/26 07:04:58;;;;;;;2.00;0.52;;;19.30;65.10;;;;;;4965208;28;20055;-75
2023/03/26 07:07:25;;;;;;;2.33;0.55;;;19.40;65.10;;;;;;4972269;28;20050;-75
2023/03/26 07:09:52;;;;;;;1.75;0.68;;;19.40;65.10;;;;;;4973623;28;20057;-75
2023/03/26 07:12:19;;;;;;;1.65;0.52;;;19.40;65.00;;;;;;4973649;28;20062;-75
2023/03/26 07:14:46;;;;;;;1.55;0.60;;;19.50;65.00;;;;;;4966264;28;20126;-75
2023/03/26 07:17:13;;;;;;;1.33;0.10;;;19.50;64.90;;;;;;4973969;28;20570;-74
2023/03/26 07:19:42;;;;;;;2.05;1.48;;;19.60;64.90;;;;;;4973282;28;20062;-74
2023/03/26 07:22:15;;;;;;;1.92;0.50;;;19.70;64.80;;;;;;4971633;28;20054;-75
2023/03/26 07:24:42;;;;;;;2.72;0.77;;;19.70;64.70;;;;;;4967714;28;20042;-74
2023/03/26 07:27:17;;;;;;;1.73;0.73;;;19.70;64.60;;;;;;4970343;28;20050;-76
2023/03/26 07:29:49;;;;;;;1.55;0.60;;;19.80;64.50;;;;;;4975316;28;20054;-75
2023/03/26 07:32:22;;;;;;;3.10;0.73;;;19.90;64.50;;;;;;4956076;28;20994;-74
2023/03/26 07:34:56;;;;;;;3.92;0.70;;;20.00;64.40;;;;;;4969265;28;20097;-75
2023/03/26 07:37:36;;;;;;;2.97;0.40;;;20.10;64.40;;;;;;4983899;28;20043;-77
2023/03/26 07:40:09;;;;;;;2.25;0.60;;;20.10;64.40;;;;;;4968421;28;20090;-75
2023/03/26 07:43:01;;;;;;;2.80;0.20;;;20.20;64.40;;;;;;4964516;28;20061;-75
2023/03/26 07:45:33;;;;;;;2.60;0.60;;;20.20;64.50;;;;;;4960206;28;20141;-76
2023/03/26 07:48:02;;;;;;;4.07;0.13;;;20.30;64.60;;;;;;4960921;28;20482;-74
2023/03/26 07:50:30;;;;;;;2.83;0.28;;;20.30;64.70;;;;;;4963725;28;20123;-77
2023/03/26 07:52:58;;;;;;;1.42;0.55;;;20.30;65.00;;;;;;4966656;28;20055;-75
2023/03/26 07:55:25;;;;;;;1.85;0.20;;;20.30;65.10;;;;;;4966494;28;20047;-71
2023/03/26 07:58:00;;;;;;;2.13;0.50;;;20.30;65.40;;;;;;4968580;28;20068;-72
2023/03/26 08:00:34;;;;;;;3.10;1.45;;;20.30;66.00;;;;;;4969431;28;20081;-74
2023/03/26 08:03:31;;;;;;;3.33;0.70;;;20.30;66.70;;;;;;4967763;28;20083;-72
2023/03/26 08:06:07;;;;;;;2.45;0.80;;;20.40;68.00;;;;;;4968265;28;20082;-72
2023/03/26 08:08:44;;;;;;;4.72;1.00;;;20.40;68.50;;;;;;4964447;28;20059;-72
2023/03/26 08:11:24;;;;;;;2.85;0.98;;;20.40;68.20;;;;;;4968310;28;20055;-72
2023/03/26 08:14:03;;;;;;;4.65;0.77;;;20.40;68.40;;;;;;4963646;28;20510;-73
2023/03/26 08:16:37;;;;;;;8.45;0.85;;;20.30;68.60;;;;;;4964756;28;20593;-72
2023/03/26 08:19:15;;;;;;;4.00;1.08;;;20.30;68.70;;;;;;4970417;28;20055;-72
2023/03/26 08:21:50;;;;;;;2.85;0.77;;;20.30;68.80;;;;;;4968435;28;20046;-73
2023/03/26 08:24:22;;;;;;;3.60;1.33;;;20.30;68.90;;;;;;4968694;28;20058;-73
2023/03/26 08:26:56;;;;;;;2.95;0.70;;;20.30;69.00;;;;;;4968433;28;20093;-74
2023/03/26 08:29:33;;;;;;;4.32;0.70;;;20.20;69.10;;;;;;4967376;28;20057;-71
2023/03/26 08:32:03;;;;;;;3.67;0.95;;;20.20;69.20;;;;;;4969835;28;20491;-72
2023/03/26 08:34:30;;;;;;;2.17;0.77;;;20.20;69.30;;;;;;4969625;28;20058;-72
2023/03/26 08:36:58;;;;;;;2.28;0.75;;;20.20;69.30;;;;;;4968766;28;20058;-71
2023/03/26 08:39:25;;;;;;;3.65;0.80;;;20.20;69.40;;;;;;4963630;28;20058;-72
2023/03/26 08:42:19;;;;;;;2.42;0.30;;;20.20;69.50;;;;;;4969501;28;20055;-74
2023/03/26 08:45:24;;;;;;;3.13;0.63;;;20.20;69.70;;;;;;4951405;28;20431;-72
2023/03/26 08:48:28;;;;;;;3.22;0.80;;;20.20;69.80;;;;;;4961892;28;20061;-71
2023/03/26 08:51:29;;;;;;;4.30;0.93;;;20.10;69.80;;;;;;4965797;28;20127;-73
2023/03/26 08:54:38;;;;;;;4.50;1.13;;;20.10;70.00;;;;;;4968157;28;20599;-74
2023/03/26 08:57:44;;;;;;;3.50;0.85;;;20.10;70.10;;;;;;4959689;28;20070;-76
2023/03/26 09:00:44;;;;;;;1.90;0.80;;;20.10;70.30;;;;;;4961840;28;20059;-72
2023/03/26 09:03:28;;;;;;;3.70;0.82;;;20.10;70.40;;;;;;4954894;28;20500;-74
2023/03/26 09:06:24;;;;;;;5.05;0.70;;;20.20;70.30;;;;;;4969438;28;20090;-71
2023/03/26 09:09:37;;;;;;;4.32;0.70;;;20.10;70.40;;;;;;4966230;28;20062;-75
2023/03/26 09:12:34;;;;;;;;;;;20.20;70.50;;;;;;4925219;28;20057;-74
2023/03/26 09:15:32;;;;;;;3.28;0.75;;;20.10;70.60;;;;;;4967388;28;19932;-75
2023/03/26 09:18:38;;;;;;;3.50;0.68;;;20.20;70.50;;;;;;4967636;28;20512;-75
2023/03/26 09:21:38;;;;;;;2.65;0.75;;;20.10;70.50;;;;;;4922769;28;20047;-74
2023/03/26 09:24:36;;;;;;;2.13;0.20;;;20.20;70.70;;;;;;4965751;28;20047;-76
2023/03/26 09:27:33;;;;;;;3.13;1.02;;;20.20;70.80;;;;;;4964586;28;20074;-73
2023/03/26 09:30:33;;;;;;;1.75;0.30;;;20.20;71.10;;;;;;4961302;28;20061;-73
2023/03/26 09:33:26;;;;;;;2.75;0.70;;;20.20;71.10;;;;;;4983738;28;20117;-74
2023/03/26 09:36:21;;;;;;;2.70;0.30;;;20.10;71.20;;;;;;4968015;28;20057;-71
2023/03/26 09:38:54;;;;;;;1.90;0.50;;;20.20;71.30;;;;;;4968710;28;20468;-76
2023/03/26 09:41:36;;;;;;;2.20;0.70;;;20.10;71.20;;;;;;4969287;28;20081;-74
2023/03/26 09:44:31;;;;;;;;;;;20.10;71.30;;;;;;4968548;28;20427;-75
2023/03/26 09:47:27;;;;;;;2.38;0.70;;;20.10;71.40;;;;;;4970068;28;19930;-79
2023/03/26 09:50:03;;;;;;;2.58;0.88;;;20.20;71.30;;;;;;4963145;28;20061;-73
2023/03/26 09:52:49;;;;;;;2.40;0.98;;;20.20;71.30;;;;;;4963107;28;20061;-74
2023/03/26 09:55:34;;;;;;;2.97;0.55;;;20.20;71.50;;;;;;4965865;28;20043;-74
2023/03/26 09:58:26;;;;;;;11.52;0.90;;;20.20;71.40;;;;;;4959327;28;20046;-72
2023/03/26 10:00:59;;;;;;;2.33;0.52;;;20.20;71.60;;;;;;4967785;28;20055;-73
2023/03/26 10:03:38;;;;;;;4.88;0.93;;;20.20;71.40;;;;;;4972114;28;20059;-72
2023/03/26 10:06:26;;;;;;;3.42;1.10;;;20.20;71.50;;;;;;4966498;28;20051;-71
2023/03/26 10:09:10;;;;;;;2.38;0.30;;;20.20;71.60;;;;;;4973426;28;20510;-73
2023/03/26 10:11:58;;;;;;;2.53;0.20;;;20.20;71.60;;;;;;4970517;28;20046;-70
2023/03/26 10:14:32;;;;;;;2.28;0.60;;;20.20;71.60;;;;;;4975918;28;20046;-70
2023/03/26 10:17:11;;;;;;;4.47;0.28;;;20.10;71.50;;;;;;4968521;28;20058;-71
2023/03/26 10:19:52;;;;;;;2.00;0.17;;;20.20;71.70;;;;;;4973525;28;20046;-72
2023/03/26 10:22:36;;;;;;;2.70;1.10;;;20.20;71.70;;;;;;4963034;28;20055;-71
2023/03/26 10:25:22;;;;;;;3.97;1.00;;;20.20;71.80;;;;;;4967145;28;20057;-71
2023/03/26 10:27:59;;;;;;;4.85;1.10;;;20.20;71.80;;;;;;4968336;28;20070;-73
2023/03/26 10:30:39;;;;;;;3.10;0.75;;;20.20;71.80;;;;;;4968890;28;20058;-71
2023/03/26 10:33:19;;;;;;;4.57;1.52;;;20.20;71.90;;;;;;4963878;28;20073;-73
2023/03/26 10:36:00;;;;;;;2.10;1.15;;;20.20;71.90;;;;;;4971454;28;20050;-70
2023/03/26 10:38:46;;;;;;;2.55;0.73;;;20.20;72.00;;;;;;4972316;28;20089;-71
2023/03/26 10:41:19;;;;;;;2.40;0.70;;;20.20;72.00;;;;;;4970743;28;20051;-71
2023/03/26 10:44:20;;;;;;;2.50;1.10;;;20.20;71.90;;;;;;4962889;28;20055;-71
2023/03/26 10:47:49;;;;;;;2.53;0.60;;;20.30;72.00;;;;;;4970610;28;20159;-71
2023/03/26 10:50:29;;;;;;;2.50;0.90;;;20.30;72.20;;;;;;4889978;29;20544;-70
2023/03/26 10:53:03;;;;;;;3.25;0.68;;;20.30;72.00;;;;;;4894114;29;20048;-71
2023/03/26 10:55:36;;;;;;;2.70;0.80;;;20.30;72.10;;;;;;4958226;28;20050;-71
2023/03/26 10:58:10;;;;;;;2.92;0.85;;;20.30;72.20;;;;;;4966785;28;20114;-72
2023/03/26 11:00:44;;;;;;;2.78;0.82;;;20.30;72.30;;;;;;4968878;28;20054;-73
2023/03/26 11:03:31;;;;;;;2.83;0.55;;;20.30;72.30;;;;;;4970071;28;20501;-72
2023/03/26 11:06:07;;;;;;;3.58;0.65;;;20.30;72.90;;;;;;4971071;28;20101;-76
2023/03/26 11:08:42;;;;;;;2.75;0.73;;;20.30;72.30;;;;;;4970097;28;20055;-71
2023/03/26 11:11:19;;;;;;;5.10;0.75;;;20.30;72.40;;;;;;4971466;28;20078;-71
2023/03/26 11:13:56;;;;;;;2.92;0.32;;;20.30;72.40;;;;;;4968712;28;20042;-72
2023/03/26 11:16:29;;;;;;;4.38;0.90;;;20.30;72.40;;;;;;4970885;28;20051;-74
2023/03/26 11:19:01;;;;;;;2.97;1.33;;;20.30;72.40;;;;;;4967712;28;20054;-72
2023/03/26 11:21:38;;;;;;;3.53;0.90;;;20.30;72.50;;;;;;4969965;28;20051;-72
2023/03/26 11:24:35;;;;;;;2.90;0.60;;;20.30;72.50;;;;;;4966072;28;20051;-74
2023/03/26 11:27:07;;;;;;;3.70;1.00;;;20.40;72.60;;;;;;4967334;28;20054;-72
2023/03/26 11:29:44;;;;;;;3.70;1.17;;;20.40;72.50;;;;;;4971195;28;20403;-71
2023/03/26 11:32:14;;;;;;;2.70;1.05;;;20.50;72.50;;;;;;4969633;28;20097;-74
2023/03/26 11:34:47;;;;;;;3.17;0.60;;;20.50;72.40;;;;;;4971752;28;20054;-74
2023/03/26 11:37:19;;;;;;;3.08;0.95;;;20.50;72.40;;;;;;4969728;28;20047;-71
2023/03/26 11:39:53;;;;;;;3.13;0.82;;;20.50;72.50;;;;;;4962905;28;20057;-71
2023/03/26 11:42:23;;;;;;;2.80;0.77;;;20.50;72.50;;;;;;4964920;28;20134;-73
2023/03/26 11:44:55;;;;;;;2.05;0.28;;;20.60;72.70;;;;;;4969494;28;20055;-71
2023/03/26 11:47:29;;;;;;;3.45;0.70;;;20.50;72.70;;;;;;4979968;28;20054;-72
2023/03/26 11:50:00;;;;;;;3.67;1.10;;;20.50;72.70;;;;;;4968803;28;20094;-70
2023/03/26 11:52:27;;;;;;;3.40;0.55;;;20.50;72.70;;;;;;4968974;28;20043;-76
2023/03/26 11:54:57;;;;;;;4.00;2.05;;;20.50;72.60;;;;;;4970926;28;20480;-77
2023/03/26 11:57:29;;;;;;;4.15;1.00;;;20.50;72.60;;;;;;4965942;28;20410;-70
2023/03/26 12:00:04;;;;;;;1.90;0.90;;;20.50;72.60;;;;;;4968671;28;20404;-72
2023/03/26 12:02:37;;;;;;;;;;;20.50;72.50;;;;;;4971631;28;20435;-70
2023/03/26 12:05:18;;;;;;;3.72;1.02;;;20.50;72.80;;;;;;4967190;28;19933;-73
2023/03/26 12:07:50;;;;;;;3.30;1.27;;;20.50;72.60;;;;;;4965289;28;20149;-72
2023/03/26 12:10:33;;;;;;;1.98;1.38;;;20.50;72.70;;;;;;4969853;28;20093;-81
2023/03/26 12:13:02;;;;;;;1.80;0.30;;;20.50;73.10;;;;;;4968755;28;20051;-77
2023/03/26 12:15:31;;;;;;;3.03;0.95;;;20.60;73.10;;;;;;4967312;28;20047;-79
2023/03/26 12:17:59;;;;;;;2.47;1.10;;;20.60;73.20;;;;;;4971024;28;20043;-81
2023/03/26 12:20:37;;;;;;;2.22;1.00;;;20.60;73.40;;;;;;4966944;28;20055;-81
2023/03/26 12:23:06;;;;;;;2.67;0.50;;;20.70;73.60;;;;;;4967480;28;20042;-81
2023/03/26 12:25:36;;;;;;;;;;;20.70;73.60;;;;;;4971783;28;20063;-78
2023/03/26 12:28:06;;;;;;;2.38;0.20;;;20.70;73.80;;;;;;4970269;28;19926;-78
2023/03/26 12:30:36;;;;;;;2.95;0.85;;;20.70;73.60;;;;;;4964174;28;20519;-85
2023/03/26 12:33:06;;;;;;;4.15;0.90;;;20.70;73.70;;;;;;4961133;28;20138;-85
2023/03/26 12:35:34;;;;;;;2.45;0.55;;;20.70;73.80;;;;;;4970921;28;20046;-79
2023/03/26 12:38:21;;;;;;;2.28;0.60;;;20.80;74.00;;;;;;4968051;28;20105;-88
2023/03/26 12:41:04;;;;;;;1.92;0.70;;;20.70;74.20;;;;;;4961419;28;20097;-81
2023/03/26 12:43:38;;;;;;;3.10;0.55;;;20.70;74.20;;;;;;4969715;28;20433;-85
2023/03/26 12:46:22;;;;;;;2.35;0.20;;;20.70;74.20;;;;;;4970573;28;20054;-79
2023/03/26 12:48:50;;;;;;;2.50;0.90;;;20.70;74.40;;;;;;4967708;28;20089;-81
2023/03/26 12:51:29;;;;;;;2.63;0.70;;;20.70;74.30;;;;;;4960310;28;20046;-81
2023/03/26 12:54:15;;;;;;;1.67;0.20;;;20.70;74.50;;;;;;4967457;28;20055;-77
2023/03/26 12:56:51;;;;;;;3.75;1.08;;;20.70;74.50;;;;;;4962532;28;20078;-76
2023/03/26 12:59:42;;;;;;;3.63;0.90;;;20.70;74.50;;;;;;4969034;28;20050;-77
2023/03/26 13:02:37;;;;;;;2.17;1.00;;;20.70;74.50;;;;;;4967810;28;20054;-80
2023/03/26 13:05:26;;;;;;;3.33;0.90;;;20.80;74.50;;;;;;4967890;28;20054;-74
2023/03/26 13:08:04;;;;;;;1.90;0.60;;;20.80;74.40;;;;;;4946101;28;20046;-72
2023/03/26 13:10:49;;;;;;;2.50;0.98;;;20.80;74.20;;;;;;4965317;28;20053;-77
2023/03/26 13:13:40;;;;;;;5.32;0.77;;;20.80;73.80;;;;;;4961471;28;20046;-78
2023/03/26 13:16:13;;;;;;;2.83;0.60;;;20.70;73.40;;;;;;4969734;28;20047;-77
2023/03/26 13:18:47;;;;;;;3.42;0.95;;;20.70;73.90;;;;;;4970156;28;20047;-77
2023/03/26 13:21:22;;;;;;;3.45;1.08;;;20.70;73.20;;;;;;4969014;28;20129;-76